createdAt,value
2018-12-18T00:01:44.659Z,98699.68
2018-12-18T00:04:14.549Z,98708.17
2018-12-18T00:06:59.557Z,98696.72
2018-12-18T00:09:28.733Z,98698.16
2018-12-18T00:14:51.781Z,98704.11
2018-12-18T00:17:25.962Z,98711.38
2018-12-18T00:20:00.671Z,98705.86
2018-12-18T00:22:34.462Z,98714.75
2018-12-18T00:25:02.921Z,98707.48
2018-12-18T00:27:32.132Z,98709.70
2018-12-18T00:30:00.570Z,98703.07
2018-12-18T00:32:32.328Z,98714.57
2018-12-18T00:35:00.819Z,98708.52
2018-12-18T00:37:29.332Z,98704.92
2018-12-18T00:40:05.012Z,98705.55
2018-12-18T00:42:33.480Z,98708.98
2018-12-18T00:45:19.167Z,98708.86
2018-12-18T00:47:47.618Z,98709.77
2018-12-18T00:50:16.325Z,98707.46
2018-12-18T00:52:45.107Z,98710.61
2018-12-18T00:55:17.913Z,98717.88
2018-12-18T00:57:46.371Z,98711.08
2018-12-18T01:03:13.012Z,98720.22
2018-12-18T01:05:46.960Z,98712.41
2018-12-18T01:08:21.154Z,98729.23
2018-12-18T01:10:49.631Z,98713.17
2018-12-18T01:13:18.171Z,98713.11
2018-12-18T01:15:46.665Z,98714.58
2018-12-18T01:18:16.593Z,98722.38
2018-12-18T01:20:58.093Z,98729.74
2018-12-18T01:23:30.506Z,98720.56
2018-12-18T01:25:58.975Z,98723.83
2018-12-18T01:28:31.771Z,98733.78
2018-12-18T01:31:00.237Z,98729.70
2018-12-18T01:33:28.945Z,98729.70
2018-12-18T01:35:57.415Z,98724.34
2018-12-18T01:38:25.840Z,98723.13
2018-12-18T01:40:54.264Z,98722.49
2018-12-18T01:43:22.764Z,98727.95
2018-12-18T01:45:51.211Z,98720.98
2018-12-18T01:48:19.627Z,98720.52
2018-12-18T01:50:48.099Z,98719.17
2018-12-18T01:53:16.568Z,98722.54
2018-12-18T01:55:45.015Z,98722.88
2018-12-18T01:58:13.510Z,98721.91
2018-12-18T02:00:41.936Z,98714.58
2018-12-18T02:03:10.377Z,98711.85
2018-12-18T02:05:38.838Z,98716.59
2018-12-18T02:08:07.270Z,98716.44
2018-12-18T02:10:37.729Z,98711.32
2018-12-18T02:13:06.194Z,98720.86
2018-12-18T02:15:34.622Z,98716.78
2018-12-18T02:18:03.043Z,98715.61
2018-12-18T02:20:31.496Z,98721.13
2018-12-18T02:22:59.919Z,98713.86
2018-12-18T02:25:28.333Z,98714.63
2018-12-18T02:27:56.896Z,98715.78
2018-12-18T02:30:25.335Z,98721.23
2018-12-18T02:32:53.772Z,98725.84
2018-12-18T02:35:22.260Z,98728.09
2018-12-18T02:37:51.058Z,98726.59
2018-12-18T02:40:19.508Z,98730.02
2018-12-18T02:42:48.034Z,98726.66
2018-12-18T02:45:16.455Z,98730.48
2018-12-18T02:47:44.891Z,98734.80
2018-12-18T02:50:13.344Z,98731.47
2018-12-18T02:52:41.769Z,98736.24
2018-12-18T02:55:10.232Z,98739.09
2018-12-18T02:57:38.706Z,98739.23
2018-12-18T03:00:07.569Z,98732.84
2018-12-18T03:02:36.265Z,98740.34
2018-12-18T03:05:05.558Z,98734.21
2018-12-18T03:07:33.997Z,98740.61
2018-12-18T03:10:02.434Z,98749.16
2018-12-18T03:12:30.918Z,98741.78
2018-12-18T03:14:59.396Z,98745.96
2018-12-18T03:17:27.840Z,98744.55
2018-12-18T03:19:56.315Z,98747.34
2018-12-18T03:22:24.759Z,98745.66
2018-12-18T03:24:53.204Z,98743.58
2018-12-18T03:27:21.655Z,98749.27
2018-12-18T03:29:50.102Z,98739.80
2018-12-18T03:32:19.574Z,98738.47
2018-12-18T03:34:48.080Z,98743.98
2018-12-18T03:37:16.503Z,98743.58
2018-12-18T03:39:44.965Z,98747.34
2018-12-18T03:42:13.421Z,98740.95
2018-12-18T03:44:41.868Z,98752.33
2018-12-18T03:47:10.301Z,98749.54
2018-12-18T03:49:38.765Z,98747.59
2018-12-18T03:52:07.176Z,98746.48
2018-12-18T03:54:36.124Z,98750.21
2018-12-18T03:57:04.584Z,98753.67
2018-12-18T03:59:33.027Z,98752.47
2018-12-18T04:02:01.452Z,98754.85
2018-12-18T04:04:35.450Z,98749.27
2018-12-18T04:07:00.469Z,98754.45
2018-12-18T04:09:28.905Z,98756.30
2018-12-18T04:12:03.144Z,98750.41
2018-12-18T04:14:31.565Z,98752.80
2018-12-18T04:17:00.011Z,98748.48
2018-12-18T04:19:28.484Z,98765.34
2018-12-18T04:21:56.909Z,98750.10
2018-12-18T04:24:25.466Z,98761.50
2018-12-18T04:26:54.366Z,98755.92
2018-12-18T04:29:22.793Z,98758.17
2018-12-18T04:31:51.247Z,98753.47
2018-12-18T04:34:19.709Z,98757.20
2018-12-18T04:36:48.151Z,98755.31
2018-12-18T04:39:16.705Z,98755.13
2018-12-18T04:41:45.205Z,98755.30
2018-12-18T04:44:13.631Z,98757.31
2018-12-18T04:46:42.060Z,98746.62
2018-12-18T04:49:10.529Z,98760.97
2018-12-18T04:51:39.010Z,98764.73
2018-12-18T04:54:07.428Z,98764.91
2018-12-18T04:56:35.875Z,98771.30
2018-12-18T04:59:04.320Z,98775.02
2018-12-18T05:01:32.764Z,98781.27
2018-12-18T05:04:01.503Z,98781.75
2018-12-18T05:06:29.936Z,98788.06
2018-12-18T05:08:58.369Z,98783.84
2018-12-18T05:11:26.840Z,98780.08
2018-12-18T05:13:55.276Z,98785.52
2018-12-18T05:16:23.721Z,98776.80
2018-12-18T05:18:52.582Z,98776.47
2018-12-18T05:21:21.008Z,98787.19
2018-12-18T05:23:49.669Z,98787.89
2018-12-18T05:26:18.908Z,98800.27
2018-12-18T05:28:47.462Z,98796.98
2018-12-18T05:31:15.913Z,98804.25
2018-12-18T05:33:44.390Z,98811.77
2018-12-18T05:36:12.816Z,98810.31
2018-12-18T05:38:41.340Z,98828.04
2018-12-18T05:41:09.808Z,98807.94
2018-12-18T05:43:38.265Z,98814.06
2018-12-18T05:46:07.108Z,98810.23
2018-12-18T05:48:36.012Z,98820.85
2018-12-18T05:51:04.443Z,98825.96
2018-12-18T05:53:32.900Z,98822.71
2018-12-18T05:56:01.799Z,98832.92
2018-12-18T05:58:30.221Z,98831.95
2018-12-18T06:00:58.654Z,98836.17
2018-12-18T06:03:27.131Z,98838.33
2018-12-18T06:05:55.556Z,98836.77
2018-12-18T06:08:24.548Z,98835.84
2018-12-18T06:10:53.026Z,98838.04
2018-12-18T06:13:21.681Z,98839.94
2018-12-18T06:15:50.108Z,98838.73
2018-12-18T06:18:18.572Z,98836.50
2018-12-18T06:20:47.611Z,98834.20
2018-12-18T06:23:16.469Z,98852.70
2018-12-18T06:25:44.920Z,98845.15
2018-12-18T06:28:13.457Z,98853.11
2018-12-18T06:30:41.923Z,98860.37
2018-12-18T06:33:11.737Z,98864.61
2018-12-18T06:35:47.827Z,98868.55
2018-12-18T06:38:41.024Z,98857.81
2018-12-18T06:41:18.049Z,98861.75
2018-12-18T06:43:47.796Z,98868.29
2018-12-18T06:46:17.041Z,98865.26
2018-12-18T06:48:46.124Z,98866.13
2018-12-18T06:51:14.608Z,98868.50
2018-12-18T06:53:43.440Z,98870.27
2018-12-18T06:56:11.848Z,98872.67
2018-12-18T06:58:40.331Z,98881.14
2018-12-18T07:01:20.918Z,98872.80
2018-12-18T07:03:50.646Z,98870.84
2018-12-18T07:06:19.055Z,98876.25
2018-12-18T07:08:50.186Z,98889.79
2018-12-18T07:11:35.785Z,98892.69
2018-12-18T07:14:06.296Z,98897.02
2018-12-18T07:16:34.759Z,98894.80
2018-12-18T07:19:04.520Z,98902.41
2018-12-18T07:21:36.675Z,98907.02
2018-12-18T07:24:05.922Z,98913.05
2018-12-18T07:26:35.217Z,98913.59
2018-12-18T07:29:03.708Z,98909.88
2018-12-18T07:31:49.005Z,98912.61
2018-12-18T07:34:24.268Z,98911.16
2018-12-18T07:36:58.102Z,98917.39
2018-12-18T07:39:27.028Z,98909.47
2018-12-18T07:42:02.068Z,98908.73
2018-12-18T07:44:30.566Z,98910.58
2018-12-18T07:46:59.869Z,98916.65
2018-12-18T07:49:28.368Z,98788.13
2018-12-18T07:51:56.873Z,98902.74
2018-12-18T07:54:25.284Z,98905.64
2018-12-18T07:56:53.740Z,98907.24
2018-12-18T07:59:22.251Z,98910.70
2018-12-18T08:01:51.331Z,98921.69
2018-12-18T08:04:25.188Z,98768.92
2018-12-18T08:06:53.647Z,98911.06
2018-12-18T08:09:22.157Z,98915.58
2018-12-18T08:11:53.511Z,98917.93
2018-12-18T08:14:22.181Z,98913.06
2018-12-18T08:16:51.053Z,98919.98
2018-12-18T08:19:20.568Z,98917.42
2018-12-18T08:21:49.658Z,98917.14
2018-12-18T08:24:18.595Z,98924.98
2018-12-18T08:26:47.077Z,98930.27
2018-12-18T08:29:15.528Z,98921.57
2018-12-18T08:31:43.984Z,98925.92
2018-12-18T08:34:13.297Z,98918.44
2018-12-18T08:36:41.741Z,98911.17
2018-12-18T08:39:10.279Z,98918.13
2018-12-18T08:41:38.773Z,98911.69
2018-12-18T08:44:07.607Z,98903.55
2018-12-18T08:46:36.052Z,98904.69
2018-12-18T08:49:04.520Z,98910.89
2018-12-18T08:51:32.977Z,98902.63
2018-12-18T08:54:01.444Z,98900.91
2018-12-18T08:56:30.205Z,98902.94
2018-12-18T08:58:58.688Z,98900.04
2018-12-18T09:01:27.128Z,98906.23
2018-12-18T09:03:55.657Z,98907.34
2018-12-18T09:06:24.083Z,98907.53
2018-12-18T09:08:52.520Z,98905.16
2018-12-18T09:11:21.012Z,98904.59
2018-12-18T09:13:49.484Z,98898.61
2018-12-18T09:19:18.591Z,98897.71
2018-12-18T09:21:47.077Z,98894.04
2018-12-18T09:24:15.507Z,98896.02
2018-12-18T09:26:43.911Z,98892.16
2018-12-18T09:29:12.371Z,98892.49
2018-12-18T09:31:40.816Z,98888.77
2018-12-18T09:34:09.260Z,98890.97
2018-12-18T09:36:37.762Z,98886.19
2018-12-18T09:39:12.289Z,98890.28
2018-12-18T09:41:40.930Z,98895.98
2018-12-18T09:44:11.417Z,98881.37
2018-12-18T09:46:40.031Z,98876.77
2018-12-18T09:49:08.523Z,98875.05
2018-12-18T09:51:36.982Z,98872.09
2018-12-18T09:54:05.440Z,98867.83
2018-12-18T09:56:35.968Z,98857.90
2018-12-18T09:59:04.636Z,98860.45
2018-12-18T10:01:33.145Z,98851.83
2018-12-18T10:04:01.645Z,98846.97
2018-12-18T10:06:30.084Z,98843.88
2018-12-18T10:08:58.539Z,98838.67
2018-12-18T10:11:27.008Z,98829.70
2018-12-18T10:13:55.451Z,98823.23
2018-12-18T10:16:23.968Z,98824.23
2018-12-18T10:18:52.433Z,98820.20
2018-12-18T10:21:20.895Z,98814.33
2018-12-18T10:23:49.347Z,98811.88
2018-12-18T10:26:17.942Z,98810.88
2018-12-18T10:28:46.388Z,98813.69
2018-12-18T10:31:14.843Z,98806.25
2018-12-18T10:33:43.380Z,98807.66
2018-12-18T10:36:11.811Z,98798.16
2018-12-18T10:38:40.276Z,98803.05
2018-12-18T10:41:08.760Z,98795.63
2018-12-18T10:43:37.264Z,98762.12
2018-12-18T10:46:05.716Z,98787.39
2018-12-18T10:48:34.199Z,98780.64
2018-12-18T10:51:02.659Z,98774.91
2018-12-18T10:53:31.086Z,98775.51
2018-12-18T10:55:59.947Z,98780.72
2018-12-18T10:58:28.379Z,98776.33
2018-12-18T11:01:02.519Z,98768.88
2018-12-18T11:03:30.964Z,98768.43
2018-12-18T11:05:59.415Z,98761.22
2018-12-18T11:08:28.020Z,98759.33
2018-12-18T11:10:56.548Z,98756.52
2018-12-18T11:13:25.034Z,98762.12
2018-12-18T11:15:54.014Z,98759.65
2018-12-18T11:18:22.463Z,98748.98
2018-12-18T11:20:50.914Z,98740.79
2018-12-18T11:23:19.814Z,98743.83
2018-12-18T11:25:48.515Z,98742.88
2018-12-18T11:28:17.060Z,98739.12
2018-12-18T11:30:45.552Z,98731.55
2018-12-18T11:33:13.996Z,98731.83
2018-12-18T11:35:42.417Z,98729.11
2018-12-18T11:38:10.885Z,98723.11
2018-12-18T11:40:39.305Z,98719.36
2018-12-18T11:43:07.767Z,98720.25
2018-12-18T11:45:36.303Z,98720.30
2018-12-18T11:48:04.735Z,98715.49
2018-12-18T11:50:33.172Z,98714.63
2018-12-18T11:53:02.063Z,98716.36
2018-12-18T11:55:30.487Z,98710.77
2018-12-18T11:57:58.915Z,98709.42
2018-12-18T12:00:27.420Z,98713.98
2018-12-18T12:02:55.860Z,98714.33
2018-12-18T12:05:24.317Z,98712.36
2018-12-18T12:07:52.804Z,98716.52
2018-12-18T12:10:21.257Z,98720.59
2018-12-18T12:12:49.723Z,98716.08
2018-12-18T12:15:18.179Z,98714.97
2018-12-18T12:17:46.745Z,98713.56
2018-12-18T12:20:15.175Z,98708.23
2018-12-18T12:22:43.624Z,98711.64
2018-12-18T12:25:12.109Z,98704.75
2018-12-18T12:27:46.120Z,98705.20
2018-12-18T12:30:15.216Z,98715.14
2018-12-18T12:32:43.636Z,98709.97
2018-12-18T12:35:12.146Z,98705.65
2018-12-18T12:37:40.590Z,98707.36
2018-12-18T12:40:09.132Z,98701.32
2018-12-18T12:42:37.616Z,98706.94
2018-12-18T12:45:06.390Z,98700.90
2018-12-18T12:47:34.822Z,98705.20
2018-12-18T12:50:05.097Z,98709.19
2018-12-18T12:52:33.529Z,98710.00
2018-12-18T12:55:01.994Z,98703.95
2018-12-18T12:57:30.978Z,98705.17
2018-12-18T12:59:59.827Z,98713.72
2018-12-18T13:02:28.267Z,98705.22
2018-12-18T13:04:56.752Z,98703.82
2018-12-18T13:07:26.187Z,98711.10
2018-12-18T13:09:54.645Z,98712.82
2018-12-18T13:12:23.116Z,98712.37
2018-12-18T13:14:51.555Z,98704.55
2018-12-18T13:17:20.010Z,98707.53
2018-12-18T13:19:48.501Z,98710.57
2018-12-18T13:22:16.927Z,98714.09
2018-12-18T13:24:45.346Z,98712.28
2018-12-18T13:27:14.124Z,98717.41
2018-12-18T13:29:43.051Z,98719.05
2018-12-18T13:32:11.497Z,98722.60
2018-12-18T13:34:40.000Z,98722.86
2018-12-18T13:37:08.680Z,98717.12
2018-12-18T13:39:37.119Z,98721.76
2018-12-18T13:42:05.593Z,98719.17
2018-12-18T13:44:34.060Z,98716.89
2018-12-18T13:47:02.479Z,98715.58
2018-12-18T13:49:30.976Z,98712.09
2018-12-18T13:51:59.398Z,98713.33
2018-12-18T13:54:27.851Z,98723.64
2018-12-18T13:56:56.323Z,98719.73
2018-12-18T13:59:24.756Z,98720.13
2018-12-18T14:01:53.151Z,98717.17
2018-12-18T14:04:21.631Z,98721.44
2018-12-18T14:06:50.083Z,98712.28
2018-12-18T14:09:18.577Z,98712.23
2018-12-18T14:11:47.058Z,98712.11
2018-12-18T14:14:15.516Z,98708.11
2018-12-18T14:16:43.971Z,98714.97
2018-12-18T14:19:13.078Z,98715.27
2018-12-18T14:21:41.530Z,98719.51
2018-12-18T14:24:09.976Z,98548.25
2018-12-18T14:26:38.915Z,98707.61
2018-12-18T14:29:07.355Z,98691.14
2018-12-18T14:31:35.775Z,98697.19
2018-12-18T14:34:04.249Z,98691.06
2018-12-18T14:36:32.668Z,98690.97
2018-12-18T14:39:01.097Z,98690.52
2018-12-18T14:41:29.573Z,98686.09
2018-12-18T14:43:58.025Z,98681.17
2018-12-18T14:46:26.468Z,98676.69
2018-12-18T14:48:54.964Z,98665.23
2018-12-18T14:51:23.708Z,98662.56
2018-12-18T14:53:52.220Z,98660.63
2018-12-18T14:56:21.598Z,98660.89
2018-12-18T14:58:50.048Z,98655.98
2018-12-18T15:01:18.460Z,98666.56
2018-12-18T15:03:46.945Z,98662.95
2018-12-18T15:06:15.756Z,98661.42
2018-12-18T15:08:44.206Z,98661.61
2018-12-18T15:11:12.679Z,98663.56
2018-12-18T15:13:41.176Z,98660.36
2018-12-18T15:16:09.747Z,98666.98
2018-12-18T15:18:38.228Z,98668.09
2018-12-18T15:21:06.675Z,98670.42
2018-12-18T15:23:35.256Z,98667.20
2018-12-18T15:26:03.746Z,98669.95
2018-12-18T15:28:32.204Z,98674.95
2018-12-18T15:31:00.647Z,98672.69
2018-12-18T15:33:29.141Z,98672.69
2018-12-18T15:35:57.856Z,98673.75
2018-12-18T15:38:26.368Z,98685.72
2018-12-18T15:40:54.853Z,98677.08
2018-12-18T15:43:23.376Z,98676.66
2018-12-18T15:45:52.033Z,98681.84
2018-12-18T15:48:20.644Z,98681.39
2018-12-18T15:50:49.146Z,98689.02
2018-12-18T15:53:17.605Z,98692.69
2018-12-18T15:55:46.136Z,98688.63
2018-12-18T15:58:14.688Z,98685.41
2018-12-18T16:00:43.150Z,98686.61
2018-12-18T16:03:11.737Z,98693.77
2018-12-18T16:05:40.230Z,98688.73
2018-12-18T16:08:08.784Z,98688.35
2018-12-18T16:10:37.317Z,98698.34
2018-12-18T16:13:05.849Z,98687.76
2018-12-18T16:15:34.356Z,98684.16
2018-12-18T16:18:02.969Z,98693.13
2018-12-18T16:20:31.488Z,98686.94
2018-12-18T16:22:59.986Z,98689.84
2018-12-18T16:25:28.604Z,98570.34
2018-12-18T16:27:57.287Z,98695.54
2018-12-18T16:30:25.787Z,98696.33
2018-12-18T16:32:54.271Z,98695.33
2018-12-18T16:35:22.845Z,98699.93
2018-12-18T16:37:51.391Z,98701.92
2018-12-18T16:40:19.938Z,98693.22
2018-12-18T16:42:48.496Z,98704.24
2018-12-18T16:45:17.145Z,98704.28
2018-12-18T16:47:45.675Z,98698.98
2018-12-18T16:50:14.278Z,98698.88
2018-12-18T16:52:42.879Z,98701.75
2018-12-18T16:55:11.439Z,98705.23
2018-12-18T16:57:39.948Z,98708.22
2018-12-18T17:00:09.328Z,98699.95
2018-12-18T17:02:38.158Z,98704.97
2018-12-18T17:05:07.135Z,98702.36
2018-12-18T17:07:35.739Z,98695.88
2018-12-18T17:10:04.735Z,98692.58
2018-12-18T17:12:33.287Z,98698.52
2018-12-18T17:15:01.801Z,98706.45
2018-12-18T17:17:30.397Z,98698.61
2018-12-18T17:19:59.057Z,98690.47
2018-12-18T17:22:27.596Z,98693.66
2018-12-18T17:24:56.257Z,98688.78
2018-12-18T17:27:24.808Z,98701.38
2018-12-18T17:29:53.430Z,98708.97
2018-12-18T17:32:21.991Z,98713.56
2018-12-18T17:34:50.552Z,98715.66
2018-12-18T17:37:20.001Z,98720.73
2018-12-18T17:39:48.667Z,98714.92
2018-12-18T17:42:17.184Z,98717.34
2018-12-18T17:44:45.732Z,98716.28
2018-12-18T17:47:14.356Z,98717.44
2018-12-18T17:49:43.212Z,98719.94
2018-12-18T17:52:11.792Z,98724.63
2018-12-18T17:54:40.345Z,98728.63
2018-12-18T17:57:08.865Z,98736.04
2018-12-18T17:59:37.515Z,98723.78
2018-12-18T18:02:07.211Z,98731.06
2018-12-18T18:04:35.883Z,98731.45
2018-12-18T18:07:04.380Z,98729.57
2018-12-18T18:09:33.014Z,98732.91
2018-12-18T18:12:01.542Z,98737.34
2018-12-18T18:14:30.147Z,98740.77
2018-12-18T18:16:58.786Z,98742.17
2018-12-18T18:19:27.432Z,98738.08
2018-12-18T18:21:55.983Z,98740.66
2018-12-18T18:24:24.645Z,98749.55
2018-12-18T18:26:53.306Z,98742.70
2018-12-18T18:29:21.858Z,98742.93
2018-12-18T18:31:50.517Z,98738.53
2018-12-18T18:34:19.037Z,98749.36
2018-12-18T18:36:47.582Z,98751.33
2018-12-18T18:39:16.110Z,98747.80
2018-12-18T18:41:44.735Z,98746.88
2018-12-18T18:44:13.306Z,98745.16
2018-12-18T18:46:41.943Z,98747.62
2018-12-18T18:49:11.290Z,98749.09
2018-12-18T18:51:40.155Z,98754.69
2018-12-18T18:54:08.717Z,98751.49
2018-12-18T18:56:38.320Z,98749.48
2018-12-18T18:59:07.701Z,98746.87
2018-12-18T19:01:36.327Z,98746.47
2018-12-18T19:04:05.007Z,98742.22
2018-12-18T19:06:33.806Z,98737.53
2018-12-18T19:09:03.421Z,98745.23
2018-12-18T19:11:33.775Z,98744.85
2018-12-18T19:14:02.730Z,98743.27
2018-12-18T19:16:31.368Z,98743.48
2018-12-18T19:18:59.996Z,98741.61
2018-12-18T19:21:28.612Z,98738.16
2018-12-18T19:23:57.208Z,98731.31
2018-12-18T19:26:26.501Z,98729.16
2018-12-18T19:28:55.105Z,98722.36
2018-12-18T19:31:24.148Z,98724.09
2018-12-18T19:33:53.794Z,98717.83
2018-12-18T19:36:22.469Z,98720.11
2018-12-18T19:38:52.156Z,98723.64
2018-12-18T19:41:21.152Z,98721.18
2018-12-18T19:43:49.811Z,98725.55
2018-12-18T19:46:18.495Z,98729.03
2018-12-18T19:48:47.319Z,98728.23
2018-12-18T19:51:16.438Z,98730.44
2018-12-18T19:53:45.716Z,98727.86
2018-12-18T19:56:14.316Z,98727.91
2018-12-18T19:58:42.986Z,98728.78
2018-12-18T20:01:11.626Z,98726.66
2018-12-18T20:03:40.214Z,98727.53
2018-12-18T20:06:09.842Z,98729.35
2018-12-18T20:08:38.560Z,98735.79
2018-12-18T20:11:07.264Z,98735.79
2018-12-18T20:13:36.616Z,98723.75
2018-12-18T20:16:06.234Z,98733.80
2018-12-18T20:18:34.877Z,98737.73
2018-12-18T20:21:04.323Z,98739.52
2018-12-18T20:23:32.989Z,98727.14
2018-12-18T20:26:02.014Z,98736.23
2018-12-18T20:28:30.633Z,98734.57
2018-12-18T20:31:00.955Z,98735.31
2018-12-18T20:33:29.661Z,98730.62
2018-12-18T20:35:58.860Z,98733.11
2018-12-18T20:38:27.942Z,98730.00
2018-12-18T20:40:56.936Z,98731.11
2018-12-18T20:43:26.198Z,98726.98
2018-12-18T20:45:55.363Z,98726.86
2018-12-18T20:48:24.576Z,98726.75
2018-12-18T20:50:53.199Z,98719.44
2018-12-18T20:53:21.807Z,98722.35
2018-12-18T20:55:51.794Z,98724.09
2018-12-18T20:58:20.652Z,98728.80
2018-12-18T21:00:49.276Z,98721.94
2018-12-18T21:03:18.692Z,98719.40
2018-12-18T21:05:47.289Z,98714.63
2018-12-18T21:08:15.872Z,98708.56
2018-12-18T21:10:44.531Z,98715.53
2018-12-18T21:13:20.826Z,98709.12
2018-12-18T21:15:49.398Z,98707.84
2018-12-18T21:18:18.051Z,98706.59
2018-12-18T21:20:47.185Z,98707.54
2018-12-18T21:23:15.740Z,98704.51
2018-12-18T21:25:44.441Z,98710.88
2018-12-18T21:28:13.177Z,98711.67
2018-12-18T21:30:41.774Z,98709.47
2018-12-18T21:33:10.284Z,98704.20
2018-12-18T21:35:38.988Z,98712.73
2018-12-18T21:38:07.680Z,98713.14
2018-12-18T21:40:36.408Z,98716.59
2018-12-18T21:43:05.415Z,98710.16
2018-12-18T21:45:33.940Z,98700.64
2018-12-18T21:48:02.612Z,98702.80
2018-12-18T21:50:31.188Z,98697.80
2018-12-18T21:52:59.713Z,98696.70
2018-12-18T21:55:28.233Z,98701.40
2018-12-18T21:57:56.786Z,98703.52
2018-12-18T22:00:25.260Z,98698.44
2018-12-18T22:02:53.770Z,98695.03
2018-12-18T22:05:22.269Z,98691.59
2018-12-18T22:07:50.750Z,98691.24
2018-12-18T22:10:19.264Z,98696.85
2018-12-18T22:12:47.777Z,98687.38
2018-12-18T22:15:17.316Z,98690.30
2018-12-18T22:17:45.760Z,98691.70
2018-12-18T22:20:14.231Z,98690.03
2018-12-18T22:22:42.636Z,98688.67
2018-12-18T22:25:11.081Z,98692.61
2018-12-18T22:27:39.547Z,98692.20
2018-12-18T22:30:07.996Z,98689.58
2018-12-18T22:32:36.458Z,98691.33
2018-12-18T22:35:04.940Z,98681.47
2018-12-18T22:37:33.384Z,98678.06
2018-12-18T22:40:01.797Z,98685.80
2018-12-18T22:42:30.263Z,98681.44
2018-12-18T22:44:58.712Z,98678.48
2018-12-18T22:47:27.140Z,98673.09
2018-12-18T22:49:55.585Z,98663.48
2018-12-18T22:52:24.005Z,98663.89
2018-12-18T22:54:52.903Z,98659.23
2018-12-18T22:57:21.428Z,98658.55
2018-12-18T22:59:50.104Z,98657.16
2018-12-18T23:02:18.543Z,98656.36
2018-12-18T23:04:47.300Z,98658.86
2018-12-18T23:07:15.762Z,98653.22
2018-12-18T23:09:44.213Z,98647.19
2018-12-18T23:12:12.633Z,98645.11
2018-12-18T23:14:41.093Z,98640.72
2018-12-18T23:17:09.541Z,98635.67
2018-12-18T23:19:37.964Z,98637.45
2018-12-18T23:22:06.446Z,98632.45
2018-12-18T23:24:34.883Z,98623.05
2018-12-18T23:27:03.325Z,98623.92
2018-12-18T23:29:31.786Z,98634.19
2018-12-18T23:32:00.222Z,98634.69
2018-12-18T23:34:33.006Z,98628.70
2018-12-18T23:36:59.181Z,98619.68
2018-12-18T23:39:27.667Z,98624.62
2018-12-18T23:41:56.376Z,98620.20
2018-12-18T23:44:24.990Z,98617.62
2018-12-18T23:46:53.428Z,98614.95
2018-12-18T23:49:21.860Z,98601.65
2018-12-18T23:51:50.323Z,98602.06
2018-12-18T23:54:18.720Z,98590.02
2018-12-18T23:56:47.138Z,98591.30
2018-12-18T23:59:15.595Z,98593.88
